sensor_id;sensor_type;location;lat;lon;timestamp;noise_LAeq;noise_LA_min;noise_LA_max;noise_LA01;noise_LA95
76339;Laerm;26644;50.248;19.032;2023-04-25T00:02:02;47.37;41.32;62.49;;
76339;Laerm;26644;50.248;19.032;2023-04-25T00:05:09;48.90;40.62;65.25;;
76339;Laerm;26644;50.248;19.032;2023-04-25T00:08:13;47.03;42.89;55.58;;
76339;Laerm;26644;50.248;19.032;2023-04-25T00:11:19;47.22;41.65;52.13;;
76339;Laerm;26644;50.248;19.032;2023-04-25T00:14:26;47.27;40.71;53.30;;
76339;Laerm;26644;50.248;19.032;2023-04-25T00:17:31;45.01;38.35;50.81;;
76339;Laerm;26644;50.248;19.032;2023-04-25T00:20:36;47.11;42.17;52.29;;
76339;Laerm;26644;50.248;19.032;2023-04-25T00:23:41;45.84;39.99;52.62;;
76339;Laerm;26644;50.248;19.032;2023-04-25T00:26:49;47.52;42.14;58.38;;
76339;Laerm;26644;50.248;19.032;2023-04-25T00:29:57;48.08;43.91;53.57;;
76339;Laerm;26644;50.248;19.032;2023-04-25T00:33:02;46.75;42.07;51.57;;
76339;Laerm;26644;50.248;19.032;2023-04-25T00:36:08;47.81;42.17;52.88;;
76339;Laerm;26644;50.248;19.032;2023-04-25T00:39:13;49.48;45.35;52.86;;
76339;Laerm;26644;50.248;19.032;2023-04-25T00:42:19;47.95;43.14;53.46;;
76339;Laerm;26644;50.248;19.032;2023-04-25T00:45:29;47.63;43.25;59.63;;
76339;Laerm;26644;50.248;19.032;2023-04-25T00:48:34;47.47;41.81;52.17;;
76339;Laerm;26644;50.248;19.032;2023-04-25T00:51:39;49.14;43.90;54.93;;
76339;Laerm;26644;50.248;19.032;2023-04-25T00:54:46;49.54;44.24;57.14;;
76339;Laerm;26644;50.248;19.032;2023-04-25T00:57:50;48.44;44.34;53.09;;
76339;Laerm;26644;50.248;19.032;2023-04-25T01:00:59;48.06;43.30;54.15;;
76339;Laerm;26644;50.248;19.032;2023-04-25T01:04:05;50.29;43.66;54.78;;
76339;Laerm;26644;50.248;19.032;2023-04-25T01:07:11;46.77;41.04;51.76;;
76339;Laerm;26644;50.248;19.032;2023-04-25T01:10:16;47.75;41.93;54.11;;
76339;Laerm;26644;50.248;19.032;2023-04-25T01:13:22;48.34;43.62;52.82;;
76339;Laerm;26644;50.248;19.032;2023-04-25T01:16:30;48.42;43.49;53.16;;
76339;Laerm;26644;50.248;19.032;2023-04-25T01:19:36;48.21;43.89;53.08;;
76339;Laerm;26644;50.248;19.032;2023-04-25T01:22:43;49.21;44.58;57.91;;
76339;Laerm;26644;50.248;19.032;2023-04-25T01:25:49;49.49;44.29;54.65;;
76339;Laerm;26644;50.248;19.032;2023-04-25T01:28:56;48.45;43.41;53.56;;
76339;Laerm;26644;50.248;19.032;2023-04-25T01:32:03;50.07;46.57;54.06;;
76339;Laerm;26644;50.248;19.032;2023-04-25T01:35:11;48.82;42.81;60.27;;
76339;Laerm;26644;50.248;19.032;2023-04-25T01:38:19;48.78;43.88;60.99;;
76339;Laerm;26644;50.248;19.032;2023-04-25T01:41:24;50.21;45.50;56.58;;
76339;Laerm;26644;50.248;19.032;2023-04-25T01:44:29;48.82;43.55;57.89;;
76339;Laerm;26644;50.248;19.032;2023-04-25T01:47:35;49.79;44.99;54.40;;
76339;Laerm;26644;50.248;19.032;2023-04-25T01:50:41;50.09;46.41;54.64;;
76339;Laerm;26644;50.248;19.032;2023-04-25T01:53:51;49.15;44.51;54.89;;
76339;Laerm;26644;50.248;19.032;2023-04-25T01:56:57;49.62;45.45;54.53;;
76339;Laerm;26644;50.248;19.032;2023-04-25T02:00:07;49.18;45.40;53.90;;
76339;Laerm;26644;50.248;19.032;2023-04-25T02:03:15;49.14;44.41;54.35;;
76339;Laerm;26644;50.248;19.032;2023-04-25T02:06:20;50.25;44.07;56.70;;
76339;Laerm;26644;50.248;19.032;2023-04-25T02:09:30;50.47;44.86;55.88;;
76339;Laerm;26644;50.248;19.032;2023-04-25T02:12:39;49.12;45.69;54.25;;
76339;Laerm;26644;50.248;19.032;2023-04-25T02:16:12;50.84;45.14;56.66;;
76339;Laerm;26644;50.248;19.032;2023-04-25T02:19:17;51.08;45.51;55.83;;
76339;Laerm;26644;50.248;19.032;2023-04-25T02:22:22;49.42;43.98;55.11;;
76339;Laerm;26644;50.248;19.032;2023-04-25T02:25:31;50.15;46.14;56.11;;
76339;Laerm;26644;50.248;19.032;2023-04-25T02:28:35;50.25;45.76;62.14;;
76339;Laerm;26644;50.248;19.032;2023-04-25T02:31:41;51.44;46.53;55.81;;
76339;Laerm;26644;50.248;19.032;2023-04-25T02:34:45;52.04;47.59;59.02;;
76339;Laerm;26644;50.248;19.032;2023-04-25T02:37:50;52.37;48.70;56.48;;
76339;Laerm;26644;50.248;19.032;2023-04-25T02:40:57;51.90;47.78;57.27;;
76339;Laerm;26644;50.248;19.032;2023-04-25T02:44:03;51.13;46.39;58.73;;
76339;Laerm;26644;50.248;19.032;2023-04-25T02:47:07;51.68;48.02;56.57;;
76339;Laerm;26644;50.248;19.032;2023-04-25T02:50:12;51.78;48.18;58.95;;
76339;Laerm;26644;50.248;19.032;2023-04-25T02:53:17;51.45;46.32;59.14;;
76339;Laerm;26644;50.248;19.032;2023-04-25T02:56:28;51.47;47.57;57.00;;
76339;Laerm;26644;50.248;19.032;2023-04-25T02:59:33;52.47;47.42;57.93;;
76339;Laerm;26644;50.248;19.032;2023-04-25T03:02:38;53.03;48.26;57.37;;
76339;Laerm;26644;50.248;19.032;2023-04-25T03:05:43;51.60;48.13;56.26;;
76339;Laerm;26644;50.248;19.032;2023-04-25T03:08:49;52.46;47.58;57.65;;
76339;Laerm;26644;50.248;19.032;2023-04-25T03:11:56;51.68;47.09;56.74;;
76339;Laerm;26644;50.248;19.032;2023-04-25T03:15:03;51.38;47.57;57.04;;
76339;Laerm;26644;50.248;19.032;2023-04-25T03:18:08;52.67;47.96;58.56;;
76339;Laerm;26644;50.248;19.032;2023-04-25T03:21:15;53.44;49.49;59.31;;
76339;Laerm;26644;50.248;19.032;2023-04-25T03:24:20;53.70;49.70;58.36;;
76339;Laerm;26644;50.248;19.032;2023-04-25T03:27:28;53.25;50.09;59.99;;
76339;Laerm;26644;50.248;19.032;2023-04-25T03:30:32;52.85;48.86;59.79;;
76339;Laerm;26644;50.248;19.032;2023-04-25T03:33:38;53.44;49.53;58.79;;
76339;Laerm;26644;50.248;19.032;2023-04-25T03:36:42;52.98;49.74;56.88;;
76339;Laerm;26644;50.248;19.032;2023-04-25T03:39:48;53.75;50.79;57.69;;
76339;Laerm;26644;50.248;19.032;2023-04-25T03:42:55;53.28;49.99;60.46;;
76339;Laerm;26644;50.248;19.032;2023-04-25T03:46:01;54.01;50.69;59.87;;
76339;Laerm;26644;50.248;19.032;2023-04-25T03:49:06;54.12;50.76;60.53;;
76339;Laerm;26644;50.248;19.032;2023-04-25T03:52:33;53.71;50.66;58.38;;
76339;Laerm;26644;50.248;19.032;2023-04-25T03:55:38;53.97;50.51;58.86;;
76339;Laerm;26644;50.248;19.032;2023-04-25T03:58:47;53.55;50.46;57.62;;
76339;Laerm;26644;50.248;19.032;2023-04-25T04:01:54;53.86;50.06;58.88;;
76339;Laerm;26644;50.248;19.032;2023-04-25T04:05:00;54.34;50.95;58.59;;
76339;Laerm;26644;50.248;19.032;2023-04-25T04:08:05;53.83;50.20;57.66;;
76339;Laerm;26644;50.248;19.032;2023-04-25T04:11:13;54.03;51.00;57.81;;
76339;Laerm;26644;50.248;19.032;2023-04-25T04:14:20;54.08;50.70;58.32;;
76339;Laerm;26644;50.248;19.032;2023-04-25T04:17:26;54.55;50.99;61.76;;
76339;Laerm;26644;50.248;19.032;2023-04-25T04:20:32;54.58;50.75;58.66;;
76339;Laerm;26644;50.248;19.032;2023-04-25T04:23:37;55.04;51.92;63.79;;
76339;Laerm;26644;50.248;19.032;2023-04-25T04:26:43;54.79;50.39;58.90;;
76339;Laerm;26644;50.248;19.032;2023-04-25T04:30:12;54.82;51.35;60.87;;
76339;Laerm;26644;50.248;19.032;2023-04-25T04:33:31;54.94;51.85;59.33;;
76339;Laerm;26644;50.248;19.032;2023-04-25T04:36:39;55.76;52.13;62.14;;
76339;Laerm;26644;50.248;19.032;2023-04-25T04:39:45;54.60;51.04;58.83;;
76339;Laerm;26644;50.248;19.032;2023-04-25T04:42:59;55.11;52.20;58.42;;
76339;Laerm;26644;50.248;19.032;2023-04-25T04:46:25;55.27;52.11;59.74;;
76339;Laerm;26644;50.248;19.032;2023-04-25T04:49:53;55.05;51.90;64.91;;
76339;Laerm;26644;50.248;19.032;2023-04-25T04:53:33;54.97;51.86;62.85;;
76339;Laerm;26644;50.248;19.032;2023-04-25T04:56:51;54.42;50.97;62.80;;
76339;Laerm;26644;50.248;19.032;2023-04-25T05:00:17;54.54;51.12;66.91;;
76339;Laerm;26644;50.248;19.032;2023-04-25T05:04:03;54.95;51.55;64.52;;
76339;Laerm;26644;50.248;19.032;2023-04-25T05:07:17;55.21;51.15;61.26;;
76339;Laerm;26644;50.248;19.032;2023-04-25T05:10:23;55.13;51.15;74.92;;
76339;Laerm;26644;50.248;19.032;2023-04-25T05:13:40;57.82;51.34;79.54;;
76339;Laerm;26644;50.248;19.032;2023-04-25T05:17:21;54.33;51.22;60.82;;
76339;Laerm;26644;50.248;19.032;2023-04-25T05:20:47;54.97;51.82;61.54;;
76339;Laerm;26644;50.248;19.032;2023-04-25T05:24:02;54.29;51.17;60.55;;
76339;Laerm;26644;50.248;19.032;2023-04-25T05:27:25;56.27;51.99;82.46;;
76339;Laerm;26644;50.248;19.032;2023-04-25T05:30:36;55.50;52.45;65.41;;
76339;Laerm;26644;50.248;19.032;2023-04-25T05:34:03;55.61;51.88;65.26;;
76339;Laerm;26644;50.248;19.032;2023-04-25T05:37:30;55.73;52.32;65.30;;
76339;Laerm;26644;50.248;19.032;2023-04-25T05:40:44;56.05;52.44;62.53;;
76339;Laerm;26644;50.248;19.032;2023-04-25T05:44:08;56.13;52.93;61.13;;
76339;Laerm;26644;50.248;19.032;2023-04-25T05:47:36;56.93;53.09;65.80;;
76339;Laerm;26644;50.248;19.032;2023-04-25T05:50:55;58.94;52.85;77.60;;
76339;Laerm;26644;50.248;19.032;2023-04-25T05:54:19;56.55;52.85;71.70;;
76339;Laerm;26644;50.248;19.032;2023-04-25T05:57:27;56.51;52.93;65.14;;
76339;Laerm;26644;50.248;19.032;2023-04-25T06:00:32;56.28;53.53;65.32;;
76339;Laerm;26644;50.248;19.032;2023-04-25T06:03:38;56.17;52.64;64.15;;
76339;Laerm;26644;50.248;19.032;2023-04-25T06:06:44;55.12;51.55;63.71;;
76339;Laerm;26644;50.248;19.032;2023-04-25T06:09:52;55.76;52.67;65.67;;
76339;Laerm;26644;50.248;19.032;2023-04-25T06:12:56;55.56;52.64;66.31;;
76339;Laerm;26644;50.248;19.032;2023-04-25T06:16:03;55.59;51.92;72.72;;
76339;Laerm;26644;50.248;19.032;2023-04-25T06:19:07;55.76;52.08;69.61;;
76339;Laerm;26644;50.248;19.032;2023-04-25T06:22:13;56.88;52.26;69.09;;
76339;Laerm;26644;50.248;19.032;2023-04-25T06:25:20;56.09;52.13;63.82;;
76339;Laerm;26644;50.248;19.032;2023-04-25T06:28:25;54.90;51.92;60.52;;
76339;Laerm;26644;50.248;19.032;2023-04-25T06:31:30;55.48;52.31;68.06;;
76339;Laerm;26644;50.248;19.032;2023-04-25T06:34:36;56.09;52.50;60.95;;
76339;Laerm;26644;50.248;19.032;2023-04-25T06:37:41;55.41;52.03;64.50;;
76339;Laerm;26644;50.248;19.032;2023-04-25T06:40:49;56.86;52.82;66.50;;
76339;Laerm;26644;50.248;19.032;2023-04-25T06:43:54;55.94;53.04;59.35;;
76339;Laerm;26644;50.248;19.032;2023-04-25T06:47:05;55.45;51.97;65.85;;
76339;Laerm;26644;50.248;19.032;2023-04-25T06:50:10;55.15;51.60;67.97;;
76339;Laerm;26644;50.248;19.032;2023-04-25T06:53:15;55.11;51.79;62.99;;
76339;Laerm;26644;50.248;19.032;2023-04-25T06:56:27;55.71;51.68;65.74;;
76339;Laerm;26644;50.248;19.032;2023-04-25T06:59:40;54.82;51.87;58.96;;
76339;Laerm;26644;50.248;19.032;2023-04-25T07:02:44;54.74;51.57;61.17;;
76339;Laerm;26644;50.248;19.032;2023-04-25T07:05:50;54.63;51.71;60.80;;
76339;Laerm;26644;50.248;19.032;2023-04-25T07:08:54;55.73;52.58;70.21;;
76339;Laerm;26644;50.248;19.032;2023-04-25T07:12:04;54.91;51.51;61.13;;
76339;Laerm;26644;50.248;19.032;2023-04-25T07:15:10;55.20;51.98;62.33;;
76339;Laerm;26644;50.248;19.032;2023-04-25T07:18:18;54.57;51.07;65.08;;
76339;Laerm;26644;50.248;19.032;2023-04-25T07:21:23;55.38;51.89;65.91;;
76339;Laerm;26644;50.248;19.032;2023-04-25T07:24:29;53.80;51.04;56.80;;
76339;Laerm;26644;50.248;19.032;2023-04-25T07:27:37;54.09;50.88;60.29;;
76339;Laerm;26644;50.248;19.032;2023-04-25T07:30:54;54.34;51.03;63.23;;
76339;Laerm;26644;50.248;19.032;2023-04-25T07:34:00;53.90;50.16;65.53;;
76339;Laerm;26644;50.248;19.032;2023-04-25T07:37:06;55.05;50.99;73.31;;
76339;Laerm;26644;50.248;19.032;2023-04-25T07:40:19;54.68;51.43;65.40;;
76339;Laerm;26644;50.248;19.032;2023-04-25T07:43:32;53.89;49.77;66.72;;
76339;Laerm;26644;50.248;19.032;2023-04-25T07:46:38;54.20;50.71;66.15;;
76339;Laerm;26644;50.248;19.032;2023-04-25T07:49:45;53.99;50.84;59.75;;
76339;Laerm;26644;50.248;19.032;2023-04-25T07:52:49;54.42;50.09;60.52;;
76339;Laerm;26644;50.248;19.032;2023-04-25T07:56:02;54.00;50.39;60.65;;
76339;Laerm;26644;50.248;19.032;2023-04-25T07:59:12;53.58;49.44;63.91;;
76339;Laerm;26644;50.248;19.032;2023-04-25T08:02:18;53.64;50.03;64.66;;
76339;Laerm;26644;50.248;19.032;2023-04-25T08:05:23;54.28;50.96;58.35;;
76339;Laerm;26644;50.248;19.032;2023-04-25T08:08:36;54.29;50.74;61.83;;
76339;Laerm;26644;50.248;19.032;2023-04-25T08:11:42;53.38;48.84;62.03;;
76339;Laerm;26644;50.248;19.032;2023-04-25T08:14:53;54.30;50.19;63.55;;
76339;Laerm;26644;50.248;19.032;2023-04-25T08:18:00;54.73;50.04;68.91;;
76339;Laerm;26644;50.248;19.032;2023-04-25T08:21:07;53.38;50.42;58.06;;
76339;Laerm;26644;50.248;19.032;2023-04-25T08:24:13;54.06;50.59;63.15;;
76339;Laerm;26644;50.248;19.032;2023-04-25T08:27:19;53.89;50.33;62.20;;
76339;Laerm;26644;50.248;19.032;2023-04-25T08:30:29;53.61;50.03;59.21;;
76339;Laerm;26644;50.248;19.032;2023-04-25T08:33:34;53.83;49.86;62.05;;
76339;Laerm;26644;50.248;19.032;2023-04-25T08:36:59;54.34;49.93;64.47;;
76339;Laerm;26644;50.248;19.032;2023-04-25T08:40:16;53.78;50.12;60.59;;
76339;Laerm;26644;50.248;19.032;2023-04-25T08:43:24;53.60;50.19;64.41;;
76339;Laerm;26644;50.248;19.032;2023-04-25T08:46:33;55.51;51.82;67.34;;
76339;Laerm;26644;50.248;19.032;2023-04-25T08:49:54;56.17;51.28;72.41;;
76339;Laerm;26644;50.248;19.032;2023-04-25T08:53:08;54.48;50.89;61.67;;
76339;Laerm;26644;50.248;19.032;2023-04-25T08:56:17;54.56;50.88;61.67;;
76339;Laerm;26644;50.248;19.032;2023-04-25T08:59:25;54.62;51.49;66.19;;
76339;Laerm;26644;50.248;19.032;2023-04-25T09:02:34;54.77;50.80;65.36;;
76339;Laerm;26644;50.248;19.032;2023-04-25T09:05:41;54.61;50.81;61.93;;
76339;Laerm;26644;50.248;19.032;2023-04-25T09:08:45;55.35;51.57;64.29;;
76339;Laerm;26644;50.248;19.032;2023-04-25T09:11:54;55.24;51.62;63.63;;
76339;Laerm;26644;50.248;19.032;2023-04-25T09:15:09;53.93;51.00;61.26;;
76339;Laerm;26644;50.248;19.032;2023-04-25T09:18:36;53.86;50.40;60.51;;
76339;Laerm;26644;50.248;19.032;2023-04-25T09:21:41;53.99;50.10;60.90;;
76339;Laerm;26644;50.248;19.032;2023-04-25T09:24:46;54.20;51.03;68.10;;
76339;Laerm;26644;50.248;19.032;2023-04-25T09:27:54;54.46;50.87;59.77;;
76339;Laerm;26644;50.248;19.032;2023-04-25T09:31:09;55.59;52.20;65.14;;
76339;Laerm;26644;50.248;19.032;2023-04-25T09:34:26;55.20;51.55;62.80;;
76339;Laerm;26644;50.248;19.032;2023-04-25T09:37:33;54.27;50.94;59.40;;
76339;Laerm;26644;50.248;19.032;2023-04-25T09:40:41;54.46;50.40;68.23;;
76339;Laerm;26644;50.248;19.032;2023-04-25T09:43:57;55.04;50.95;63.18;;
76339;Laerm;26644;50.248;19.032;2023-04-25T09:47:10;54.77;51.59;59.70;;
76339;Laerm;26644;50.248;19.032;2023-04-25T09:50:21;54.48;50.77;61.88;;
76339;Laerm;26644;50.248;19.032;2023-04-25T09:53:32;54.54;51.12;65.86;;
76339;Laerm;26644;50.248;19.032;2023-04-25T09:56:51;53.36;50.26;66.56;;
76339;Laerm;26644;50.248;19.032;2023-04-25T09:59:56;54.06;50.69;61.02;;
76339;Laerm;26644;50.248;19.032;2023-04-25T10:03:06;54.59;51.43;63.19;;
76339;Laerm;26644;50.248;19.032;2023-04-25T10:06:44;54.09;50.19;63.98;;
76339;Laerm;26644;50.248;19.032;2023-04-25T10:09:59;53.56;50.50;61.07;;
76339;Laerm;26644;50.248;19.032;2023-04-25T10:13:05;53.88;50.89;70.91;;
76339;Laerm;26644;50.248;19.032;2023-04-25T10:16:11;53.85;50.86;57.71;;
76339;Laerm;26644;50.248;19.032;2023-04-25T10:19:17;53.51;50.35;58.32;;
76339;Laerm;26644;50.248;19.032;2023-04-25T10:22:33;53.82;50.24;65.21;;
76339;Laerm;26644;50.248;19.032;2023-04-25T10:25:40;53.27;49.21;62.14;;
76339;Laerm;26644;50.248;19.032;2023-04-25T10:28:57;55.79;50.60;73.57;;
76339;Laerm;26644;50.248;19.032;2023-04-25T10:32:02;55.64;49.80;69.04;;
76339;Laerm;26644;50.248;19.032;2023-04-25T10:35:13;54.50;49.82;62.34;;
76339;Laerm;26644;50.248;19.032;2023-04-25T10:38:20;54.52;50.93;70.70;;
76339;Laerm;26644;50.248;19.032;2023-04-25T10:41:26;54.57;51.04;69.64;;
76339;Laerm;26644;50.248;19.032;2023-04-25T10:44:32;55.34;51.49;64.38;;
76339;Laerm;26644;50.248;19.032;2023-04-25T10:47:44;55.30;51.08;62.47;;
76339;Laerm;26644;50.248;19.032;2023-04-25T10:50:48;57.31;50.83;75.12;;
76339;Laerm;26644;50.248;19.032;2023-04-25T10:54:01;57.54;51.35;74.53;;
76339;Laerm;26644;50.248;19.032;2023-04-25T10:57:06;54.44;49.93;63.76;;
76339;Laerm;26644;50.248;19.032;2023-04-25T11:00:16;54.22;50.48;64.30;;
76339;Laerm;26644;50.248;19.032;2023-04-25T11:03:22;54.06;50.01;61.71;;
76339;Laerm;26644;50.248;19.032;2023-04-25T11:06:46;54.59;50.85;72.19;;
76339;Laerm;26644;50.248;19.032;2023-04-25T11:10:02;55.28;51.64;61.24;;
76339;Laerm;26644;50.248;19.032;2023-04-25T11:13:08;56.02;52.15;61.28;;
76339;Laerm;26644;50.248;19.032;2023-04-25T11:16:13;56.00;52.43;77.23;;
76339;Laerm;26644;50.248;19.032;2023-04-25T11:19:20;55.09;51.65;65.35;;
76339;Laerm;26644;50.248;19.032;2023-04-25T11:22:26;55.52;51.66;65.84;;
76339;Laerm;26644;50.248;19.032;2023-04-25T11:25:35;55.19;51.86;66.69;;
76339;Laerm;26644;50.248;19.032;2023-04-25T11:28:40;55.94;52.14;62.42;;
76339;Laerm;26644;50.248;19.032;2023-04-25T11:31:50;55.46;51.36;60.47;;
76339;Laerm;26644;50.248;19.032;2023-04-25T11:34:54;55.79;51.02;64.67;;
76339;Laerm;26644;50.248;19.032;2023-04-25T11:38:01;55.53;52.43;59.43;;
76339;Laerm;26644;50.248;19.032;2023-04-25T11:41:08;55.12;51.44;66.40;;
76339;Laerm;26644;50.248;19.032;2023-04-25T11:44:16;54.89;51.97;58.80;;
76339;Laerm;26644;50.248;19.032;2023-04-25T11:47:28;55.54;50.85;61.31;;
76339;Laerm;26644;50.248;19.032;2023-04-25T11:50:34;55.94;52.26;70.15;;
76339;Laerm;26644;50.248;19.032;2023-04-25T11:53:42;55.85;51.85;77.11;;
76339;Laerm;26644;50.248;19.032;2023-04-25T11:56:51;64.67;49.77;91.22;;
76339;Laerm;26644;50.248;19.032;2023-04-25T12:00:07;54.66;51.12;61.16;;
76339;Laerm;26644;50.248;19.032;2023-04-25T12:03:14;55.67;52.18;60.21;;
76339;Laerm;26644;50.248;19.032;2023-04-25T12:06:18;54.71;51.51;59.41;;
76339;Laerm;26644;50.248;19.032;2023-04-25T12:09:30;54.83;51.64;62.70;;
76339;Laerm;26644;50.248;19.032;2023-04-25T12:12:42;55.70;51.74;63.69;;
76339;Laerm;26644;50.248;19.032;2023-04-25T12:15:48;55.58;52.06;67.92;;
76339;Laerm;26644;50.248;19.032;2023-04-25T12:18:53;54.64;51.46;65.07;;
76339;Laerm;26644;50.248;19.032;2023-04-25T12:22:00;55.70;52.29;61.72;;
76339;Laerm;26644;50.248;19.032;2023-04-25T12:25:06;55.60;52.33;61.85;;
76339;Laerm;26644;50.248;19.032;2023-04-25T12:28:18;55.44;52.10;66.12;;
76339;Laerm;26644;50.248;19.032;2023-04-25T12:31:25;55.42;51.57;61.14;;
76339;Laerm;26644;50.248;19.032;2023-04-25T12:34:32;55.28;52.01;63.66;;
76339;Laerm;26644;50.248;19.032;2023-04-25T12:37:37;55.10;51.35;64.80;;
76339;Laerm;26644;50.248;19.032;2023-04-25T12:40:42;54.87;51.11;59.20;;
76339;Laerm;26644;50.248;19.032;2023-04-25T12:43:49;55.02;51.76;63.36;;
76339;Laerm;26644;50.248;19.032;2023-04-25T12:46:54;55.69;51.46;70.02;;
76339;Laerm;26644;50.248;19.032;2023-04-25T12:50:01;55.61;53.16;58.80;;
76339;Laerm;26644;50.248;19.032;2023-04-25T12:53:06;56.10;52.27;66.41;;
76339;Laerm;26644;50.248;19.032;2023-04-25T12:56:11;55.44;51.50;63.26;;
76339;Laerm;26644;50.248;19.032;2023-04-25T12:59:19;54.97;50.60;64.31;;
76339;Laerm;26644;50.248;19.032;2023-04-25T13:02:24;54.91;51.14;59.58;;
76339;Laerm;26644;50.248;19.032;2023-04-25T13:05:29;54.63;50.87;62.00;;
76339;Laerm;26644;50.248;19.032;2023-04-25T13:08:34;55.96;51.86;62.54;;
76339;Laerm;26644;50.248;19.032;2023-04-25T13:11:40;55.16;50.84;65.73;;
76339;Laerm;26644;50.248;19.032;2023-04-25T13:14:47;53.97;50.31;58.40;;
76339;Laerm;26644;50.248;19.032;2023-04-25T13:17:52;53.70;50.53;57.62;;
76339;Laerm;26644;50.248;19.032;2023-04-25T13:20:58;53.57;50.59;74.29;;
76339;Laerm;26644;50.248;19.032;2023-04-25T13:24:05;54.07;50.30;62.91;;
76339;Laerm;26644;50.248;19.032;2023-04-25T13:27:09;56.47;52.04;79.59;;
76339;Laerm;26644;50.248;19.032;2023-04-25T13:30:18;54.60;51.42;65.01;;
76339;Laerm;26644;50.248;19.032;2023-04-25T13:33:22;55.67;52.01;65.27;;
76339;Laerm;26644;50.248;19.032;2023-04-25T13:36:27;54.68;51.41;60.02;;
76339;Laerm;26644;50.248;19.032;2023-04-25T13:39:33;53.87;50.78;63.61;;
76339;Laerm;26644;50.248;19.032;2023-04-25T13:42:39;54.13;50.22;59.60;;
76339;Laerm;26644;50.248;19.032;2023-04-25T13:45:48;53.73;49.37;63.05;;
76339;Laerm;26644;50.248;19.032;2023-04-25T13:48:54;54.10;50.43;60.23;;
76339;Laerm;26644;50.248;19.032;2023-04-25T13:51:58;53.74;50.44;59.73;;
76339;Laerm;26644;50.248;19.032;2023-04-25T13:55:04;53.67;50.47;60.51;;
76339;Laerm;26644;50.248;19.032;2023-04-25T13:58:09;54.24;49.79;58.79;;
76339;Laerm;26644;50.248;19.032;2023-04-25T14:01:18;55.13;51.32;60.90;;
76339;Laerm;26644;50.248;19.032;2023-04-25T14:04:22;54.27;50.35;64.29;;
76339;Laerm;26644;50.248;19.032;2023-04-25T14:07:28;54.44;50.73;60.11;;
76339;Laerm;26644;50.248;19.032;2023-04-25T14:10:33;54.67;51.40;70.27;;
76339;Laerm;26644;50.248;19.032;2023-04-25T14:13:39;54.06;50.74;62.35;;
76339;Laerm;26644;50.248;19.032;2023-04-25T14:16:46;53.82;50.62;61.94;;
76339;Laerm;26644;50.248;19.032;2023-04-25T14:19:53;54.41;50.82;64.07;;
76339;Laerm;26644;50.248;19.032;2023-04-25T14:22:58;56.36;52.06;75.57;;
76339;Laerm;26644;50.248;19.032;2023-04-25T14:26:03;55.24;51.62;60.99;;
76339;Laerm;26644;50.248;19.032;2023-04-25T14:29:09;53.28;48.88;61.45;;
76339;Laerm;26644;50.248;19.032;2023-04-25T14:32:17;53.83;49.93;59.28;;
76339;Laerm;26644;50.248;19.032;2023-04-25T14:35:21;54.11;50.57;61.95;;
76339;Laerm;26644;50.248;19.032;2023-04-25T14:38:27;53.32;49.71;62.97;;
76339;Laerm;26644;50.248;19.032;2023-04-25T14:41:31;53.91;50.78;66.17;;
76339;Laerm;26644;50.248;19.032;2023-04-25T14:44:37;54.66;51.57;60.93;;
76339;Laerm;26644;50.248;19.032;2023-04-25T14:47:44;53.05;50.24;66.45;;
76339;Laerm;26644;50.248;19.032;2023-04-25T14:50:50;54.59;51.26;67.36;;
76339;Laerm;26644;50.248;19.032;2023-04-25T14:53:54;54.06;50.45;58.49;;
76339;Laerm;26644;50.248;19.032;2023-04-25T14:57:00;53.31;50.12;68.76;;
76339;Laerm;26644;50.248;19.032;2023-04-25T15:00:09;53.88;50.55;62.70;;
76339;Laerm;26644;50.248;19.032;2023-04-25T15:03:21;53.95;49.78;68.55;;
76339;Laerm;26644;50.248;19.032;2023-04-25T15:06:25;58.96;48.93;86.65;;
76339;Laerm;26644;50.248;19.032;2023-04-25T15:09:32;52.34;47.76;66.63;;
76339;Laerm;26644;50.248;19.032;2023-04-25T15:12:37;54.04;49.19;68.65;;
76339;Laerm;26644;50.248;19.032;2023-04-25T15:15:42;53.67;49.56;66.00;;
76339;Laerm;26644;50.248;19.032;2023-04-25T15:18:54;53.06;49.40;66.98;;
76339;Laerm;26644;50.248;19.032;2023-04-25T15:22:00;54.14;49.29;65.64;;
76339;Laerm;26644;50.248;19.032;2023-04-25T15:25:06;53.90;50.34;65.46;;
76339;Laerm;26644;50.248;19.032;2023-04-25T15:28:12;53.82;50.60;62.81;;
76339;Laerm;26644;50.248;19.032;2023-04-25T15:31:17;52.75;49.21;63.35;;
76339;Laerm;26644;50.248;19.032;2023-04-25T15:34:25;53.32;49.11;72.45;;
76339;Laerm;26644;50.248;19.032;2023-04-25T15:37:30;52.79;49.58;64.22;;
76339;Laerm;26644;50.248;19.032;2023-04-25T15:40:35;55.96;50.14;75.72;;
76339;Laerm;26644;50.248;19.032;2023-04-25T15:43:39;53.93;50.27;64.91;;
76339;Laerm;26644;50.248;19.032;2023-04-25T15:46:45;54.43;50.10;64.80;;
76339;Laerm;26644;50.248;19.032;2023-04-25T15:49:52;53.41;50.23;63.16;;
76339;Laerm;26644;50.248;19.032;2023-04-25T15:52:57;53.05;49.66;57.73;;
76339;Laerm;26644;50.248;19.032;2023-04-25T15:56:02;53.87;49.73;59.83;;
76339;Laerm;26644;50.248;19.032;2023-04-25T15:59:08;53.25;49.33;66.63;;
76339;Laerm;26644;50.248;19.032;2023-04-25T16:02:13;52.60;49.20;59.31;;
76339;Laerm;26644;50.248;19.032;2023-04-25T16:05:21;52.76;49.28;59.30;;
76339;Laerm;26644;50.248;19.032;2023-04-25T16:08:26;57.81;50.19;78.86;;
76339;Laerm;26644;50.248;19.032;2023-04-25T16:11:35;52.98;49.42;61.14;;
76339;Laerm;26644;50.248;19.032;2023-04-25T16:14:39;53.51;49.49;62.80;;
76339;Laerm;26644;50.248;19.032;2023-04-25T16:17:45;52.77;47.97;66.12;;
76339;Laerm;26644;50.248;19.032;2023-04-25T16:20:52;53.50;48.83;67.08;;
76339;Laerm;26644;50.248;19.032;2023-04-25T16:23:57;55.16;51.59;65.60;;
76339;Laerm;26644;50.248;19.032;2023-04-25T16:27:02;55.00;51.63;60.98;;
76339;Laerm;26644;50.248;19.032;2023-04-25T16:30:10;53.46;49.21;57.94;;
76339;Laerm;26644;50.248;19.032;2023-04-25T16:33:14;53.79;50.57;61.78;;
76339;Laerm;26644;50.248;19.032;2023-04-25T16:36:22;54.21;50.59;60.66;;
76339;Laerm;26644;50.248;19.032;2023-04-25T16:39:27;53.97;50.73;62.05;;
76339;Laerm;26644;50.248;19.032;2023-04-25T16:42:32;53.42;49.91;59.55;;
76339;Laerm;26644;50.248;19.032;2023-04-25T16:45:36;55.01;50.95;61.68;;
76339;Laerm;26644;50.248;19.032;2023-04-25T16:48:42;54.04;49.73;59.01;;
76339;Laerm;26644;50.248;19.032;2023-04-25T16:51:49;53.91;49.24;74.58;;
76339;Laerm;26644;50.248;19.032;2023-04-25T16:54:54;52.57;48.93;67.42;;
76339;Laerm;26644;50.248;19.032;2023-04-25T16:57:59;52.88;50.07;66.45;;
76339;Laerm;26644;50.248;19.032;2023-04-25T17:01:05;55.94;48.54;81.79;;
76339;Laerm;26644;50.248;19.032;2023-04-25T17:04:09;54.08;49.10;62.45;;
76339;Laerm;26644;50.248;19.032;2023-04-25T17:07:17;52.56;48.92;62.46;;
76339;Laerm;26644;50.248;19.032;2023-04-25T17:10:25;52.66;48.51;67.74;;
76339;Laerm;26644;50.248;19.032;2023-04-25T17:13:30;53.38;49.50;70.83;;
76339;Laerm;26644;50.248;19.032;2023-04-25T17:16:37;53.12;48.95;67.31;;
76339;Laerm;26644;50.248;19.032;2023-04-25T17:19:42;53.66;48.61;65.79;;